Time;durP1;ratioP1;P1;durP2;ratioP2;P2;SDS_P1;SDS_P2;PMS_P1;PMS_P2;Temp;Humidity;BMP_temperature;BMP_pressure;BME280_temperature;BME280_humidity;BME280_pressure;Samples;Min_cycle;Max_cycle;Signal;HPM_P1;HPM_P2
2022/01/20 00:00:20;;;;;;;6.87;4.72;;;;;;;-4.71;57.65;101276.64;477243;108;922485;-72
2022/01/20 00:02:50;;;;;;;7.21;4.46;;;;;;;-4.71;57.85;101271.32;475421;108;922563;-73
2022/01/20 00:03:54;;;;;;;5.77;4.09;;;;;;;-4.73;57.72;101278.53;475172;108;923028;-73
2022/01/20 00:07:49;;;;;;;8.08;4.66;;;;;;;-4.74;57.72;101282.14;474721;108;923461;-73
2022/01/20 00:25:46;;;;;;;4.41;3.89;;;;;;;-4.80;58.11;101261.30;474474;108;922568;-72
2022/01/20 00:26:03;;;;;;;5.66;4.04;;;;;;;-4.72;58.07;101250.98;474870;108;922715;-71
2022/01/20 00:27:09;;;;;;;6.86;4.61;;;;;;;-4.69;57.96;101257.92;474952;108;923455;-73
2022/01/20 00:28:16;;;;;;;6.11;4.73;;;;;;;-4.69;57.92;101253.46;476560;108;922641;-72
2022/01/20 00:29:26;;;;;;;4.89;4.49;;;;;;;-4.68;57.85;101243.64;472991;108;922977;-72
2022/01/20 00:30:42;;;;;;;5.56;4.93;;;;;;;-4.70;57.71;101245.57;476278;108;922502;-71
2022/01/20 00:31:48;;;;;;;5.33;4.72;;;;;;;-4.71;57.53;101249.18;475855;108;922999;-72
2022/01/20 00:34:17;;;;;;;9.46;4.93;;;;;;;-4.79;57.56;101244.35;473407;108;922594;-72
2022/01/20 00:35:25;;;;;;;4.97;4.52;;;;;;;-4.81;57.39;101246.28;475154;108;923651;-72
2022/01/20 00:37:42;;;;;;;3.81;3.20;;;;;;;-4.86;57.42;101244.88;473754;108;922661;-71
2022/01/20 00:38:45;;;;;;;4.63;3.41;;;;;;;-4.89;57.44;101243.25;475032;108;922720;-71
2022/01/20 00:39:50;;;;;;;4.55;3.68;;;;;;;-4.89;57.52;101245.91;474568;108;930557;-72
2022/01/20 00:40:55;;;;;;;3.41;3.11;;;;;;;-4.90;57.53;101241.55;477094;108;922982;-71
2022/01/20 00:41:59;;;;;;;4.44;3.96;;;;;;;-4.89;57.49;101237.08;476970;108;922498;-71
2022/01/20 00:43:02;;;;;;;5.64;3.89;;;;;;;-4.90;57.35;101236.22;475458;108;922609;-72
2022/01/20 00:44:05;;;;;;;4.59;3.46;;;;;;;-4.94;57.30;101232.06;476555;108;930402;-71
2022/01/20 00:45:09;;;;;;;4.10;3.74;;;;;;;-4.95;57.47;101234.81;474124;108;922596;-72
2022/01/20 00:46:14;;;;;;;5.68;5.18;;;;;;;-4.95;57.59;101226.84;475350;108;922647;-72
2022/01/20 00:47:19;;;;;;;5.82;4.59;;;;;;;-4.96;57.62;101228.64;475136;108;923117;-71
2022/01/20 00:48:23;;;;;;;5.91;5.18;;;;;;;-4.97;57.53;101229.63;474634;108;930469;-71
2022/01/20 00:49:26;;;;;;;5.11;4.58;;;;;;;-5.00;57.45;101231.61;475162;108;930830;-71
2022/01/20 00:50:30;;;;;;;6.59;4.50;;;;;;;-5.03;57.55;101237.14;475110;108;923146;-71
2022/01/20 00:51:34;;;;;;;6.98;4.04;;;;;;;-5.04;57.65;101241.59;475532;108;922589;-71
2022/01/20 00:52:37;;;;;;;5.12;4.17;;;;;;;-5.05;57.69;101240.74;475694;108;922525;-72
2022/01/20 00:53:44;;;;;;;6.68;3.81;;;;;;;-5.05;57.74;101240.74;474108;108;922724;-72
2022/01/20 00:54:46;;;;;;;5.61;4.04;;;;;;;-5.02;57.72;101238.84;475484;108;922600;-71
2022/01/20 00:55:50;;;;;;;4.88;3.49;;;;;;;-5.03;57.64;101238.00;475853;108;922922;-73
2022/01/20 00:56:53;;;;;;;5.72;4.30;;;;;;;-5.03;57.71;101238.00;475296;108;930647;-72
2022/01/20 00:57:57;;;;;;;7.40;4.51;;;;;;;-5.02;57.70;101241.51;472100;108;924127;-69
2022/01/20 00:59:00;;;;;;;8.63;4.40;;;;;;;-5.01;57.77;101248.50;476740;108;922643;-71
2022/01/20 01:00:10;;;;;;;5.31;4.09;;;;;;;-4.98;57.80;101250.98;474250;108;930537;-70
2022/01/20 01:01:15;;;;;;;7.92;4.61;;;;;;;-4.98;57.81;101246.52;471608;108;930626;-71
2022/01/20 01:02:21;;;;;;;7.35;5.22;;;;;;;-4.97;57.77;101250.03;473216;108;922497;-71
2022/01/20 01:03:24;;;;;;;6.55;4.73;;;;;;;-4.98;57.81;101243.86;472971;108;922579;-72
2022/01/20 01:04:28;;;;;;;8.00;4.82;;;;;;;-4.96;57.73;101247.25;474441;108;922699;-71
2022/01/20 01:05:35;;;;;;;6.71;5.72;;;;;;;-4.97;57.71;101248.23;475294;108;922673;-72
2022/01/20 01:06:53;;;;;;;7.85;4.28;;;;;;;-4.98;57.68;101246.52;475276;108;930710;-72
2022/01/20 01:07:47;;;;;;;11.18;5.68;;;;;;;-5.00;57.59;101253.73;473424;108;922668;-72
2022/01/20 01:08:50;;;;;;;9.99;4.49;;;;;;;-5.00;57.61;101252.88;476610;108;922930;-71
2022/01/20 01:09:54;;;;;;;9.18;5.26;;;;;;;-5.00;57.71;101248.41;474879;108;922933;-73
2022/01/20 01:10:57;;;;;;;11.90;5.86;;;;;;;-5.00;57.75;101237.78;475965;108;922661;-72
2022/01/20 01:12:05;;;;;;;7.10;5.02;;;;;;;-4.99;57.80;101234.17;474942;108;930563;-71
2022/01/20 01:13:11;;;;;;;10.06;4.96;;;;;;;-5.00;57.64;101240.44;477009;108;922449;-72
2022/01/20 01:14:13;;;;;;;9.28;5.36;;;;;;;-5.00;57.65;101242.23;473433;108;922858;-71
2022/01/20 01:15:26;;;;;;;9.10;5.72;;;;;;;-5.00;57.67;101236.92;474923;108;922573;-71
2022/01/20 01:16:36;;;;;;;8.08;5.24;;;;;;;-5.02;57.77;101229.07;473765;108;922694;-71
2022/01/20 01:20:13;;;;;;;10.24;4.58;;;;;;;-5.00;57.79;101221.83;475432;108;922792;-73
2022/01/20 01:21:25;;;;;;;6.02;4.26;;;;;;;-4.98;57.83;101222.59;474322;108;923253;-73
2022/01/20 01:23:24;;;;;;;8.25;4.77;;;;;;;-4.98;57.81;101227.05;474638;108;922675;-72
2022/01/20 01:24:27;;;;;;;5.35;3.84;;;;;;;-4.96;57.79;101225.16;473169;108;922616;-72
2022/01/20 01:25:31;;;;;;;13.24;4.94;;;;;;;-4.97;57.71;101226.96;473346;108;922518;-73
2022/01/20 01:26:35;;;;;;;6.35;3.64;;;;;;;-4.96;57.65;101223.33;473027;108;930702;-72
2022/01/20 01:27:41;;;;;;;7.19;3.85;;;;;;;-4.97;57.60;101221.64;475360;108;922833;-72
2022/01/20 01:28:45;;;;;;;6.86;4.12;;;;;;;-4.98;57.58;101217.27;473794;108;923320;-72
2022/01/20 01:33:08;;;;;;;6.29;4.40;;;;;;;-4.97;57.68;101208.34;477827;108;922771;-72
2022/01/20 01:33:36;;;;;;;6.54;4.16;;;;;;;-4.98;57.72;101198.66;466673;108;922929;-72
2022/01/20 01:34:42;;;;;;;10.46;4.28;;;;;;;-4.98;57.76;101205.78;474888;108;922568;-72
2022/01/20 01:35:45;;;;;;;8.69;4.24;;;;;;;-4.98;57.72;101203.13;474488;108;922611;-73
2022/01/20 01:37:03;;;;;;;5.19;4.45;;;;;;;-4.98;57.79;101203.13;474413;108;922543;-72
2022/01/20 01:39:00;;;;;;;9.86;4.17;;;;;;;-4.98;57.86;101211.95;471407;110;922741;-72
2022/01/20 01:40:06;;;;;;;8.82;4.32;;;;;;;-4.97;57.78;101210.16;472667;108;922821;-73
2022/01/20 01:41:15;;;;;;;6.89;3.93;;;;;;;-4.98;57.77;101214.61;476532;108;923048;-72
2022/01/20 01:42:25;;;;;;;5.49;3.88;;;;;;;-4.98;57.77;101219.94;475227;108;922874;-72
2022/01/20 01:43:26;;;;;;;6.16;4.14;;;;;;;-5.00;57.79;101227.14;474189;108;923586;-72
2022/01/20 01:44:31;;;;;;;6.65;4.39;;;;;;;-5.00;57.81;101220.97;475564;108;922561;-71
2022/01/20 01:45:39;;;;;;;4.72;3.53;;;;;;;-5.01;57.82;101224.58;475419;108;922538;-71
2022/01/20 01:46:45;;;;;;;6.73;4.13;;;;;;;-5.03;57.88;101224.70;473065;108;922569;-72
2022/01/20 01:47:49;;;;;;;5.84;4.46;;;;;;;-5.03;58.04;101222.04;472985;108;922615;-72
2022/01/20 01:48:56;;;;;;;5.44;3.92;;;;;;;-5.00;58.13;101227.14;473431;108;922529;-72
2022/01/20 01:49:59;;;;;;;7.62;5.04;;;;;;;-4.98;58.15;101222.59;474811;108;922640;-72
2022/01/20 01:51:03;;;;;;;7.26;4.51;;;;;;;-4.96;58.10;101225.16;473433;108;923001;-72
2022/01/20 01:52:06;;;;;;;6.72;4.27;;;;;;;-4.96;58.09;101225.98;467614;110;923750;-73
2022/01/20 01:53:10;;;;;;;6.95;4.22;;;;;;;-4.95;58.18;101226.84;466969;108;922893;-73
2022/01/20 01:54:16;;;;;;;5.65;4.39;;;;;;;-4.93;58.33;101225.80;473115;108;922661;-72
2022/01/20 01:55:20;;;;;;;5.08;4.54;;;;;;;-4.89;58.39;101224.64;477773;108;922507;-72
2022/01/20 01:56:25;;;;;;;4.94;4.13;;;;;;;-4.86;58.38;101224.45;475850;108;923188;-72
2022/01/20 01:57:28;;;;;;;7.10;3.97;;;;;;;-4.84;58.15;101227.84;476495;108;922630;-72
2022/01/20 01:58:32;;;;;;;5.31;3.90;;;;;;;-4.81;58.13;101232.12;475106;108;930475;-72
2022/01/20 01:59:53;;;;;;;5.55;4.47;;;;;;;-4.81;58.07;101234.78;475817;108;922620;-74
2022/01/20 02:01:01;;;;;;;5.04;3.62;;;;;;;-4.81;58.06;101230.32;472209;108;930696;-72
2022/01/20 02:02:05;;;;;;;9.32;3.70;;;;;;;-4.82;58.02;101239.25;474353;108;922866;-72
2022/01/20 02:03:10;;;;;;;4.00;3.57;;;;;;;-4.83;58.11;101236.68;474909;108;922676;-71
2022/01/20 02:04:24;;;;;;;5.74;3.88;;;;;;;-4.83;58.14;101228.70;474279;108;922629;-73
2022/01/20 02:05:33;;;;;;;5.98;5.11;;;;;;;-4.81;58.31;101232.12;472858;108;922805;-72
2022/01/20 02:18:56;;;;;;;4.64;3.99;;;;;;;-4.68;58.26;101233.00;472758;108;922587;-72
2022/01/20 02:20:14;;;;;;;5.97;5.37;;;;;;;-4.69;58.39;101229.52;475967;108;923212;-72
2022/01/20 02:21:14;;;;;;;5.16;4.49;;;;;;;-4.70;58.44;101230.47;474565;108;922592;-72
2022/01/20 02:22:18;;;;;;;3.87;3.41;;;;;;;-4.71;58.32;101228.75;466743;110;922657;-72
2022/01/20 02:23:26;;;;;;;4.89;3.75;;;;;;;-4.72;58.26;101232.36;466447;108;930666;-72
2022/01/20 02:24:30;;;;;;;4.78;3.87;;;;;;;-4.73;58.20;101235.97;475732;108;922935;-72
2022/01/20 02:25:36;;;;;;;6.26;3.77;;;;;;;-4.75;58.18;101235.24;476068;108;922534;-73
2022/01/20 02:26:40;;;;;;;6.85;3.96;;;;;;;-4.74;58.13;101238.76;475662;108;923202;-72
2022/01/20 02:27:43;;;;;;;8.41;4.16;;;;;;;-4.75;58.20;101227.26;465972;110;922753;-73
2022/01/20 02:28:47;;;;;;;5.57;4.94;;;;;;;-4.71;58.40;101233.22;463529;110;930629;-72
2022/01/20 02:29:51;;;;;;;4.10;3.70;;;;;;;-4.70;58.32;101235.78;471712;108;922787;-72
2022/01/20 02:30:55;;;;;;;4.16;3.38;;;;;;;-4.71;58.23;101226.09;466582;110;923462;-72
2022/01/20 02:32:00;;;;;;;3.75;3.42;;;;;;;-4.70;58.25;101233.13;465782;108;923086;-71
2022/01/20 02:33:07;;;;;;;4.01;3.56;;;;;;;-4.70;58.24;101230.47;474944;108;922639;-71
2022/01/20 02:34:12;;;;;;;4.18;3.73;;;;;;;-4.70;58.21;101232.27;477266;108;923067;-72
2022/01/20 02:35:16;;;;;;;5.32;3.99;;;;;;;-4.72;58.27;101229.70;466633;110;922765;-71
2022/01/20 02:36:20;;;;;;;4.91;4.29;;;;;;;-4.72;58.29;101224.38;466610;108;922610;-72
2022/01/20 02:37:23;;;;;;;6.27;5.29;;;;;;;-4.72;58.35;101219.06;474562;108;923139;-72
2022/01/20 02:38:36;;;;;;;5.39;4.91;;;;;;;-4.70;58.40;101217.16;474605;108;930577;-72
2022/01/20 02:45:55;;;;;;;4.42;4.02;;;;;;;-4.52;58.47;101212.39;471314;108;922606;-72
2022/01/20 02:46:59;;;;;;;12.40;11.14;;;;;;;-4.54;58.44;101209.00;475291;108;922780;-72
2022/01/20 02:48:02;;;;;;;23.54;19.49;;;;;;;-4.56;58.50;101216.22;476621;108;930458;-72
2022/01/20 02:49:07;;;;;;;8.40;7.46;;;;;;;-4.57;58.57;101224.30;475958;108;923196;-72
2022/01/20 02:50:11;;;;;;;9.06;8.26;;;;;;;-4.57;58.51;101224.30;475677;108;923192;-73
2022/01/20 02:51:14;;;;;;;8.12;7.32;;;;;;;-4.56;58.51;101220.69;476251;108;922537;-72
2022/01/20 02:52:20;;;;;;;9.67;8.72;;;;;;;-4.55;58.51;101219.74;476395;108;930620;-72
2022/01/20 02:53:23;;;;;;;8.47;7.67;;;;;;;-4.54;58.49;101218.80;476301;108;922924;-70
2022/01/20 02:54:27;;;;;;;5.21;4.74;;;;;;;-4.54;58.54;101224.97;476883;108;922725;-72
2022/01/20 02:55:30;;;;;;;4.44;3.87;;;;;;;-4.53;58.53;101213.37;474273;108;922789;-71
2022/01/20 02:56:33;;;;;;;5.41;4.26;;;;;;;-4.50;58.43;101217.63;474805;108;922994;-71
2022/01/20 02:57:37;;;;;;;4.58;3.72;;;;;;;-4.50;58.32;101222.95;476897;108;922612;-72
2022/01/20 02:58:41;;;;;;;4.96;4.47;;;;;;;-4.50;58.35;101217.63;476640;108;922845;-72
2022/01/20 02:59:45;;;;;;;4.80;4.26;;;;;;;-4.50;58.35;101223.80;475658;108;922581;-72
2022/01/20 03:00:48;;;;;;;5.45;4.54;;;;;;;-4.49;58.42;101216.67;475443;108;922524;-73
2022/01/20 03:01:52;;;;;;;4.36;3.92;;;;;;;-4.49;58.52;101220.19;475623;108;922653;-73
2022/01/20 03:02:56;;;;;;;4.53;4.09;;;;;;;-4.46;58.56;101221.78;474533;108;930629;-72
2022/01/20 03:04:02;;;;;;;5.11;4.26;;;;;;;-4.44;58.60;101228.72;474840;108;922618;-72
2022/01/20 03:05:07;;;;;;;4.54;3.94;;;;;;;-4.41;58.59;101222.34;475658;108;930613;-72
2022/01/20 03:06:11;;;;;;;5.29;4.57;;;;;;;-4.41;58.54;101230.33;475930;108;922755;-70
2022/01/20 03:07:15;;;;;;;4.17;3.77;;;;;;;-4.42;58.30;101218.83;474817;108;922590;-71
2022/01/20 03:08:18;;;;;;;3.27;2.98;;;;;;;-4.44;58.10;101226.05;473221;108;930661;-73
2022/01/20 03:09:22;;;;;;;4.12;3.35;;;;;;;-4.48;58.03;101218.39;474648;108;922540;-73
2022/01/20 03:10:26;;;;;;;4.97;3.64;;;;;;;-4.52;58.05;101228.36;477128;108;922616;-72
2022/01/20 03:11:29;;;;;;;4.74;3.54;;;;;;;-4.53;58.13;101223.17;477396;108;930592;-72
2022/01/20 03:12:33;;;;;;;4.37;3.73;;;;;;;-4.55;58.21;101220.59;476230;108;922568;-72
2022/01/20 03:13:37;;;;;;;4.06;3.64;;;;;;;-4.57;58.12;101230.48;475355;108;930703;-72
2022/01/20 03:14:42;;;;;;;5.00;4.42;;;;;;;-4.58;58.11;101233.27;476869;108;930503;-72
2022/01/20 03:15:45;;;;;;;6.21;5.31;;;;;;;-4.60;58.20;101235.16;477714;108;922493;-73
2022/01/20 03:16:50;;;;;;;7.41;5.83;;;;;;;-4.59;58.41;101236.87;477100;108;922673;-73
2022/01/20 03:17:54;;;;;;;6.57;5.90;;;;;;;-4.58;58.55;101231.46;479045;108;922521;-73
2022/01/20 03:18:57;;;;;;;7.47;5.56;;;;;;;-4.56;58.64;101239.31;477843;108;922583;-72
2022/01/20 03:20:00;;;;;;;6.04;5.30;;;;;;;-4.55;58.58;101230.39;475449;108;922559;-72
2022/01/20 03:21:05;;;;;;;8.86;7.19;;;;;;;-4.54;58.52;101235.62;475492;108;923466;-73
2022/01/20 03:22:08;;;;;;;6.67;5.55;;;;;;;-4.53;58.47;101226.69;475883;108;922974;-72
2022/01/20 03:23:11;;;;;;;9.04;6.40;;;;;;;-4.51;58.45;101229.22;474250;108;930518;-72
2022/01/20 03:24:15;;;;;;;7.41;6.72;;;;;;;-4.51;58.44;101232.73;477821;108;922606;-72
2022/01/20 03:25:18;;;;;;;7.79;7.06;;;;;;;-4.53;58.47;101232.00;475590;108;922506;-72
2022/01/20 03:26:23;;;;;;;7.04;5.87;;;;;;;-4.53;58.45;101242.65;475445;108;922614;-72
2022/01/20 03:27:26;;;;;;;5.43;4.61;;;;;;;-4.54;58.42;101245.41;475062;108;922704;-71
2022/01/20 03:28:29;;;;;;;6.78;5.06;;;;;;;-4.54;58.33;101240.08;475407;108;923204;-73
2022/01/20 03:29:33;;;;;;;4.83;4.38;;;;;;;-4.58;58.30;101235.92;474436;108;922594;-73
2022/01/20 03:30:36;;;;;;;6.49;5.48;;;;;;;-4.60;58.35;101243.15;474930;108;922852;-71
2022/01/20 03:31:40;;;;;;;5.03;4.53;;;;;;;-4.62;58.46;101245.90;475956;108;930589;-71
2022/01/20 03:32:43;;;;;;;4.85;4.27;;;;;;;-4.63;58.58;101246.84;475998;108;922721;-73
2022/01/20 03:33:47;;;;;;;4.12;3.72;;;;;;;-4.66;58.51;101250.58;473701;108;922533;-72
2022/01/20 03:34:50;;;;;;;4.23;3.67;;;;;;;-4.67;58.48;101248.02;475549;108;930706;-73
2022/01/20 03:35:54;;;;;;;3.92;3.36;;;;;;;-4.69;58.39;101245.48;466810;110;923106;-72
2022/01/20 03:37:15;;;;;;;3.26;2.96;;;;;;;-4.69;58.47;101249.95;468409;108;930618;-72
2022/01/20 03:38:26;;;;;;;3.64;2.59;;;;;;;-4.73;58.33;101246.61;473404;108;922835;-71
2022/01/20 03:39:31;;;;;;;3.49;2.94;;;;;;;-4.73;58.46;101243.09;466790;110;923120;-71
2022/01/20 03:40:34;;;;;;;3.30;3.00;;;;;;;-4.74;58.51;101244.08;468274;110;922565;-71
2022/01/20 03:41:38;;;;;;;4.79;3.09;;;;;;;-4.75;58.56;101247.69;478214;108;922688;-72
2022/01/20 03:42:44;;;;;;;4.61;3.38;;;;;;;-4.76;58.58;101249.48;475714;108;930597;-72
2022/01/20 03:43:47;;;;;;;4.24;3.37;;;;;;;-4.77;58.50;101247.77;475920;108;922442;-72
2022/01/20 03:44:52;;;;;;;3.45;3.15;;;;;;;-4.79;58.54;101246.16;468645;110;922584;-72
2022/01/20 03:45:57;;;;;;;3.50;2.74;;;;;;;-4.81;58.63;101258.72;469121;108;922668;-72
2022/01/20 03:47:02;;;;;;;3.04;2.74;;;;;;;-4.83;58.74;101250.84;476905;108;922536;-72
2022/01/20 03:48:09;;;;;;;4.03;2.99;;;;;;;-4.84;58.73;101251.78;476586;108;922605;-72
2022/01/20 03:49:26;;;;;;;3.42;3.12;;;;;;;-4.84;58.74;101246.46;475033;108;922678;-73
2022/01/20 03:51:39;;;;;;;3.17;2.94;;;;;;;-4.85;58.65;101247.41;476554;108;922626;-72
2022/01/20 03:52:43;;;;;;;3.56;3.26;;;;;;;-4.85;58.66;101251.91;474099;108;922568;-72
2022/01/20 03:53:46;;;;;;;4.86;4.45;;;;;;;-4.88;58.70;101255.61;471223;110;922648;-73
2022/01/20 03:54:50;;;;;;;15.11;12.79;;;;;;;-4.89;58.73;101250.37;470471;110;922660;-73
2022/01/20 03:55:55;;;;;;;46.67;26.52;;;;;;;-4.89;58.83;101258.35;474629;108;922563;-73
2022/01/20 03:56:59;;;;;;;30.96;21.48;;;;;;;-4.91;58.85;101255.81;475177;108;922768;-72
2022/01/20 03:58:16;;;;;;;27.34;19.82;;;;;;;-4.89;59.03;101251.23;471492;108;922624;-72
2022/01/20 03:59:21;;;;;;;7.64;6.66;;;;;;;-4.88;59.02;101250.28;474438;108;922654;-71
2022/01/20 04:00:26;;;;;;;11.86;10.59;;;;;;;-4.87;58.97;101246.68;475696;108;922532;-72
2022/01/20 04:01:49;;;;;;;8.19;6.06;;;;;;;-4.86;58.95;101250.20;472352;108;930266;-72
2022/01/20 04:02:57;;;;;;;14.42;13.09;;;;;;;-4.88;59.07;101244.11;473448;108;922708;-70
2022/01/20 04:04:02;;;;;;;8.02;7.26;;;;;;;-4.88;59.07;101252.09;456637;112;922987;-72
2022/01/20 04:05:08;;;;;;;4.89;4.28;;;;;;;-4.89;59.04;101248.58;465127;112;922795;-71
2022/01/20 04:06:12;;;;;;;7.39;5.33;;;;;;;-4.89;59.09;101255.69;455807;114;922704;-72
2022/01/20 04:07:17;;;;;;;4.37;2.46;;;;;;;-4.91;59.03;101257.63;456405;111;930636;-74
2022/01/20 04:08:20;;;;;;;2.58;2.38;;;;;;;-4.92;58.92;101245.27;466064;111;922745;-72
2022/01/20 04:09:24;;;;;;;2.86;2.42;;;;;;;-4.94;58.87;101255.14;467871;111;922975;-71
2022/01/20 04:10:28;;;;;;;3.60;2.76;;;;;;;-4.97;58.93;101248.23;466736;111;922527;-72
2022/01/20 04:11:32;;;;;;;3.16;2.62;;;;;;;-4.97;59.05;101250.89;465794;111;930402;-68
2022/01/20 04:12:35;;;;;;;4.18;2.89;;;;;;;-4.96;59.09;101255.23;456795;112;922683;-72
2022/01/20 04:13:39;;;;;;;3.38;2.81;;;;;;;-4.96;59.17;101249.91;466518;110;930626;-73
2022/01/20 04:14:48;;;;;;;3.23;2.73;;;;;;;-4.95;59.29;101251.63;465802;110;930485;-72
2022/01/20 04:15:51;;;;;;;3.37;3.01;;;;;;;-4.94;59.34;101244.50;466543;110;922719;-72
2022/01/20 04:17:04;;;;;;;3.41;2.66;;;;;;;-4.94;59.36;101245.36;466716;110;922673;-71
2022/01/20 04:18:11;;;;;;;3.37;2.90;;;;;;;-4.93;59.32;101247.08;460543;112;922982;-72
2022/01/20 04:19:14;;;;;;;3.88;2.64;;;;;;;-4.91;59.33;101254.96;452454;115;922580;-70
2022/01/20 04:20:18;;;;;;;2.83;2.58;;;;;;;-4.91;59.42;101250.50;462190;112;922681;-71
2022/01/20 04:21:24;;;;;;;5.12;3.17;;;;;;;-4.90;59.50;101257.50;461151;112;922955;-71
2022/01/20 04:22:28;;;;;;;3.57;3.21;;;;;;;-4.88;59.47;101250.28;462518;111;930622;-72
2022/01/20 04:23:31;;;;;;;4.52;3.84;;;;;;;-4.85;59.55;101251.91;462935;111;922594;-73
2022/01/20 04:24:37;;;;;;;4.51;3.90;;;;;;;-4.84;59.59;101257.10;463595;111;923167;-73
2022/01/20 04:25:40;;;;;;;4.17;3.25;;;;;;;-4.82;59.55;101259.67;463105;111;922665;-72
2022/01/20 04:26:45;;;;;;;3.92;3.06;;;;;;;-4.82;59.58;101263.19;463338;112;922646;-72
2022/01/20 04:27:48;;;;;;;3.82;2.91;;;;;;;-4.81;59.46;101264.05;463906;112;930600;-73
2022/01/20 04:28:57;;;;;;;3.51;2.72;;;;;;;-4.83;59.29;101268.59;466368;111;922579;-72
2022/01/20 04:29:58;;;;;;;3.76;3.14;;;;;;;-4.85;59.25;101265.20;465757;112;922726;-73
2022/01/20 04:31:01;;;;;;;21.94;12.69;;;;;;;-4.87;59.28;101269.76;463462;112;922566;-72
2022/01/20 04:32:05;;;;;;;15.43;10.91;;;;;;;-4.87;59.26;101267.09;466056;112;922876;-72
2022/01/20 04:33:09;;;;;;;24.98;13.29;;;;;;;-4.89;59.25;101272.51;465394;112;923025;-71
2022/01/20 04:34:13;;;;;;;19.71;11.87;;;;;;;-4.88;59.40;101263.58;463757;112;922611;-71
2022/01/20 04:35:19;;;;;;;7.03;5.92;;;;;;;-4.86;59.45;101259.03;465535;112;923033;-72
2022/01/20 04:36:24;;;;;;;5.76;4.91;;;;;;;-4.85;59.48;101260.70;465335;110;930669;-72
2022/01/20 04:37:27;;;;;;;7.97;5.57;;;;;;;-4.82;59.51;101257.02;466986;112;922891;-72
2022/01/20 04:38:30;;;;;;;6.37;4.44;;;;;;;-4.81;59.51;101259.58;464339;112;923124;-72
2022/01/20 04:39:37;;;;;;;6.18;5.26;;;;;;;-4.78;59.64;101263.83;463835;112;922829;-72
2022/01/20 04:40:40;;;;;;;5.59;4.47;;;;;;;-4.77;59.59;101257.56;464165;111;930967;-70
2022/01/20 04:41:44;;;;;;;5.93;5.19;;;;;;;-4.78;59.49;101256.70;464622;111;923038;-71
2022/01/20 04:42:49;;;;;;;4.11;3.75;;;;;;;-4.80;59.41;101255.97;463991;111;922535;-71
2022/01/20 04:43:53;;;;;;;4.17;3.78;;;;;;;-4.81;59.41;101253.41;464360;112;926465;-72
2022/01/20 04:45:05;;;;;;;3.77;3.27;;;;;;;-4.83;59.60;101253.50;464959;111;922631;-69
2022/01/20 04:47:27;;;;;;;4.56;3.11;;;;;;;-4.77;59.94;101246.92;463289;112;922592;-72
2022/01/20 04:57:33;;;;;;;5.39;4.66;;;;;;;-4.63;59.39;101252.17;465350;110;923116;-72
2022/01/20 04:58:36;;;;;;;4.49;3.92;;;;;;;-4.69;59.38;101258.78;466480;112;922774;-70
2022/01/20 04:59:39;;;;;;;8.69;4.67;;;;;;;-4.72;59.36;101250.98;464656;111;922695;-71
2022/01/20 05:00:43;;;;;;;5.61;4.08;;;;;;;-4.73;59.41;101251.08;464714;112;930627;-72
2022/01/20 05:02:05;;;;;;;3.94;3.59;;;;;;;-4.73;59.48;101253.73;465954;111;930576;-71
2022/01/20 05:03:25;;;;;;;3.62;3.25;;;;;;;-4.76;59.41;101254.81;463392;111;922573;-70
2022/01/20 05:04:29;;;;;;;4.18;3.78;;;;;;;-4.81;59.48;101254.26;455714;114;922765;-72
2022/01/20 05:05:45;;;;;;;5.07;4.52;;;;;;;-4.79;59.78;101259.45;458449;112;922952;-71
2022/01/20 05:06:53;;;;;;;5.42;4.23;;;;;;;-4.76;59.84;101259.27;463856;112;923079;-71
2022/01/20 05:07:56;;;;;;;4.39;4.01;;;;;;;-4.74;59.83;101260.04;463395;112;923072;-70
2022/01/20 05:08:59;;;;;;;5.05;4.47;;;;;;;-4.72;59.82;101258.97;456278;114;922720;-71
2022/01/20 05:10:07;;;;;;;5.10;4.70;;;;;;;-4.72;59.74;101264.28;452754;114;930649;-72
2022/01/20 05:11:12;;;;;;;4.56;4.16;;;;;;;-4.74;59.60;101258.20;452021;112;922682;-71
2022/01/20 05:12:21;;;;;;;4.19;3.81;;;;;;;-4.77;59.46;101266.39;462636;112;922503;-72
2022/01/20 05:13:33;;;;;;;4.22;3.57;;;;;;;-4.80;59.48;101258.63;464454;110;923023;-72
2022/01/20 05:14:28;;;;;;;4.24;3.24;;;;;;;-4.80;59.54;101263.95;463923;112;923154;-73
2022/01/20 05:15:33;;;;;;;4.16;3.71;;;;;;;-4.81;59.58;101259.58;467053;111;922873;-73
2022/01/20 05:16:37;;;;;;;4.10;3.72;;;;;;;-4.80;59.64;101266.61;465241;111;930509;-72
2022/01/20 05:17:41;;;;;;;4.39;3.52;;;;;;;-4.81;59.50;101264.90;465567;111;922456;-72
2022/01/20 05:18:44;;;;;;;4.01;3.66;;;;;;;-4.81;59.49;101264.05;465512;111;922655;-73
2022/01/20 05:19:47;;;;;;;4.28;3.87;;;;;;;-4.82;59.60;101271.16;465219;111;922956;-70
2022/01/20 05:20:52;;;;;;;5.84;4.11;;;;;;;-4.82;59.66;101262.33;463662;111;922637;-74
2022/01/20 05:21:55;;;;;;;4.21;3.81;;;;;;;-4.80;59.78;101263.09;465198;111;922530;-70
2022/01/20 05:23:00;;;;;;;4.33;3.92;;;;;;;-4.78;59.83;101261.17;464044;111;922637;-74
2022/01/20 05:24:04;;;;;;;4.35;3.85;;;;;;;-4.76;59.91;101265.45;465374;111;922897;-68
2022/01/20 05:25:09;;;;;;;4.94;3.62;;;;;;;-4.72;59.87;101268.75;464719;111;922827;-69
2022/01/20 05:26:14;;;;;;;4.24;3.88;;;;;;;-4.71;59.75;101263.34;464160;111;922698;-71
2022/01/20 05:27:18;;;;;;;3.83;3.48;;;;;;;-4.70;59.66;101266.86;455422;114;922523;-72
2022/01/20 05:28:21;;;;;;;4.00;3.70;;;;;;;-4.71;59.60;101260.67;459400;112;922535;-71
2022/01/20 05:29:25;;;;;;;4.38;3.73;;;;;;;-4.73;59.51;101264.37;453313;114;922854;-72
2022/01/20 05:30:29;;;;;;;3.91;3.21;;;;;;;-4.75;59.46;101260.98;451004;114;923198;-71
2022/01/20 05:31:50;;;;;;;3.42;3.14;;;;;;;-4.78;59.49;101258.51;460472;112;922677;-71
2022/01/20 05:32:53;;;;;;;4.51;3.39;;;;;;;-4.80;59.61;101255.97;463811;111;922610;-71
2022/01/20 05:33:57;;;;;;;3.71;3.31;;;;;;;-4.79;59.75;101262.11;465028;111;923324;-72
2022/01/20 05:35:01;;;;;;;3.95;3.58;;;;;;;-4.77;59.87;101258.42;464450;112;930437;-70
2022/01/20 05:36:05;;;;;;;4.87;3.44;;;;;;;-4.73;59.92;101254.59;463121;112;923154;-71
2022/01/20 05:37:08;;;;;;;3.34;3.04;;;;;;;-4.69;59.91;101252.61;464613;112;930676;-71
2022/01/20 05:38:12;;;;;;;3.55;3.08;;;;;;;-4.66;59.92;101247.92;458201;112;922542;-71
2022/01/20 05:39:16;;;;;;;4.16;3.84;;;;;;;-4.61;59.93;101252.94;463291;113;922565;-71
2022/01/20 05:40:20;;;;;;;3.69;3.39;;;;;;;-4.59;59.80;101260.83;465451;112;923083;-71
2022/01/20 05:41:26;;;;;;;3.51;3.19;;;;;;;-4.58;59.71;101260.73;457523;112;923119;-72
2022/01/20 05:42:31;;;;;;;3.46;2.77;;;;;;;-4.57;59.72;101266.88;458007;112;922712;-71
2022/01/20 05:43:36;;;;;;;3.50;3.21;;;;;;;-4.57;59.68;101272.20;461766;113;922761;-72
2022/01/20 05:44:39;;;;;;;3.86;3.49;;;;;;;-4.58;59.63;101265.20;455231;114;923224;-72
2022/01/20 05:45:43;;;;;;;3.48;2.88;;;;;;;-4.58;59.53;101267.86;465252;111;930692;-72
2022/01/20 05:46:49;;;;;;;3.49;2.95;;;;;;;-4.57;59.62;101269.53;461221;113;922870;-71
2022/01/20 05:48:14;;;;;;;3.22;2.92;;;;;;;-4.56;59.67;101268.59;453783;115;930639;-73
2022/01/20 05:49:33;;;;;;;3.50;3.09;;;;;;;-4.54;59.67;101270.20;458832;112;923184;-72
2022/01/20 05:50:38;;;;;;;3.38;3.08;;;;;;;-4.53;59.45;101273.73;459446;112;922561;-69
2022/01/20 05:51:42;;;;;;;3.58;3.09;;;;;;;-4.57;59.33;101270.39;463058;111;922598;-71
2022/01/20 05:52:46;;;;;;;3.28;2.98;;;;;;;-4.61;59.23;101271.56;455894;113;922829;-71
2022/01/20 05:53:50;;;;;;;3.41;3.11;;;;;;;-4.65;59.24;101275.38;446750;115;922874;-71
2022/01/20 05:54:53;;;;;;;4.19;3.36;;;;;;;-4.68;59.15;101275.56;460270;112;923035;-70
2022/01/20 05:55:56;;;;;;;3.63;3.27;;;;;;;-4.71;59.22;101267.80;452777;115;923041;-71
2022/01/20 05:57:00;;;;;;;5.14;3.74;;;;;;;-4.72;59.43;101260.77;452998;115;922852;-71
2022/01/20 05:58:06;;;;;;;3.98;3.57;;;;;;;-4.70;59.58;101264.20;454993;114;922908;-72
2022/01/20 05:59:10;;;;;;;4.24;3.84;;;;;;;-4.68;59.61;101259.60;446591;117;930973;-70
2022/01/20 06:00:17;;;;;;;4.76;4.08;;;;;;;-4.66;59.64;101263.03;456074;112;922700;-70